sensor_id;sensor_type;location;lat;lon;timestamp;temperature;humidity
26541;DHT22;14206;50.202;10.948;2023-02-04T00:00:05;7.00;83.20
26541;DHT22;14206;50.202;10.948;2023-02-04T00:02:33;6.90;83.80
26541;DHT22;14206;50.202;10.948;2023-02-04T00:05:00;6.90;83.90
26541;DHT22;14206;50.202;10.948;2023-02-04T00:07:27;6.90;83.70
26541;DHT22;14206;50.202;10.948;2023-02-04T00:09:54;6.90;83.80
26541;DHT22;14206;50.202;10.948;2023-02-04T00:12:21;7.00;83.90
26541;DHT22;14206;50.202;10.948;2023-02-04T00:14:48;7.00;84.60
26541;DHT22;14206;50.202;10.948;2023-02-04T00:17:15;6.90;84.40
26541;DHT22;14206;50.202;10.948;2023-02-04T00:19:42;6.90;84.40
26541;DHT22;14206;50.202;10.948;2023-02-04T00:22:09;6.90;84.90
26541;DHT22;14206;50.202;10.948;2023-02-04T00:24:37;6.90;84.40
26541;DHT22;14206;50.202;10.948;2023-02-04T00:27:04;6.90;84.70
26541;DHT22;14206;50.202;10.948;2023-02-04T00:29:31;6.90;84.80
26541;DHT22;14206;50.202;10.948;2023-02-04T00:31:58;6.90;83.90
26541;DHT22;14206;50.202;10.948;2023-02-04T00:34:26;6.90;83.10
26541;DHT22;14206;50.202;10.948;2023-02-04T00:36:53;6.90;84.50
26541;DHT22;14206;50.202;10.948;2023-02-04T00:39:19;6.90;84.10
26541;DHT22;14206;50.202;10.948;2023-02-04T00:41:46;6.90;84.30
26541;DHT22;14206;50.202;10.948;2023-02-04T00:44:13;6.90;83.60
26541;DHT22;14206;50.202;10.948;2023-02-04T00:46:41;6.90;84.50
26541;DHT22;14206;50.202;10.948;2023-02-04T00:49:09;6.90;84.30
26541;DHT22;14206;50.202;10.948;2023-02-04T00:51:39;6.90;84.00
26541;DHT22;14206;50.202;10.948;2023-02-04T00:54:06;6.90;84.10
26541;DHT22;14206;50.202;10.948;2023-02-04T00:56:34;6.90;83.20
26541;DHT22;14206;50.202;10.948;2023-02-04T00:59:02;6.90;83.20
26541;DHT22;14206;50.202;10.948;2023-02-04T01:01:29;6.80;83.60
26541;DHT22;14206;50.202;10.948;2023-02-04T01:03:56;6.80;83.90
26541;DHT22;14206;50.202;10.948;2023-02-04T01:06:23;6.80;83.80
26541;DHT22;14206;50.202;10.948;2023-02-04T01:08:50;6.80;83.50
26541;DHT22;14206;50.202;10.948;2023-02-04T01:11:17;6.80;83.80
26541;DHT22;14206;50.202;10.948;2023-02-04T01:13:44;6.80;84.20
26541;DHT22;14206;50.202;10.948;2023-02-04T01:16:13;6.80;84.10
26541;DHT22;14206;50.202;10.948;2023-02-04T01:18:45;6.80;84.40
26541;DHT22;14206;50.202;10.948;2023-02-04T01:21:12;6.70;83.90
26541;DHT22;14206;50.202;10.948;2023-02-04T01:23:41;6.70;84.90
26541;DHT22;14206;50.202;10.948;2023-02-04T01:26:08;6.60;86.20
26541;DHT22;14206;50.202;10.948;2023-02-04T01:28:35;6.50;86.40
26541;DHT22;14206;50.202;10.948;2023-02-04T01:31:02;6.50;86.60
26541;DHT22;14206;50.202;10.948;2023-02-04T01:33:29;6.40;86.60
26541;DHT22;14206;50.202;10.948;2023-02-04T01:35:56;6.40;86.60
26541;DHT22;14206;50.202;10.948;2023-02-04T01:38:23;6.40;86.60
26541;DHT22;14206;50.202;10.948;2023-02-04T01:40:50;6.40;87.00
26541;DHT22;14206;50.202;10.948;2023-02-04T01:43:21;6.40;87.10
26541;DHT22;14206;50.202;10.948;2023-02-04T01:45:49;6.30;87.20
26541;DHT22;14206;50.202;10.948;2023-02-04T01:48:18;6.30;87.60
26541;DHT22;14206;50.202;10.948;2023-02-04T01:50:51;6.20;88.40
26541;DHT22;14206;50.202;10.948;2023-02-04T01:53:21;6.20;88.70
26541;DHT22;14206;50.202;10.948;2023-02-04T01:55:50;6.30;88.70
26541;DHT22;14206;50.202;10.948;2023-02-04T01:58:17;6.20;88.70
26541;DHT22;14206;50.202;10.948;2023-02-04T02:00:44;6.20;89.00
26541;DHT22;14206;50.202;10.948;2023-02-04T02:03:11;6.30;88.90
26541;DHT22;14206;50.202;10.948;2023-02-04T02:05:43;6.20;88.90
26541;DHT22;14206;50.202;10.948;2023-02-04T02:08:11;6.20;89.50
26541;DHT22;14206;50.202;10.948;2023-02-04T02:10:41;6.20;89.10
26541;DHT22;14206;50.202;10.948;2023-02-04T02:13:12;6.10;89.50
26541;DHT22;14206;50.202;10.948;2023-02-04T02:15:40;6.10;89.50
26541;DHT22;14206;50.202;10.948;2023-02-04T02:18:08;6.10;90.00
26541;DHT22;14206;50.202;10.948;2023-02-04T02:20:35;6.10;90.00
26541;DHT22;14206;50.202;10.948;2023-02-04T02:25:42;6.10;90.30
26541;DHT22;14206;50.202;10.948;2023-02-04T02:28:14;6.10;90.80
26541;DHT22;14206;50.202;10.948;2023-02-04T02:30:43;6.10;90.80
26541;DHT22;14206;50.202;10.948;2023-02-04T02:33:17;6.10;91.00
26541;DHT22;14206;50.202;10.948;2023-02-04T02:35:45;6.10;91.40
26541;DHT22;14206;50.202;10.948;2023-02-04T02:38:15;6.10;91.50
26541;DHT22;14206;50.202;10.948;2023-02-04T02:40:43;6.10;91.60
26541;DHT22;14206;50.202;10.948;2023-02-04T02:43:17;6.10;91.50
26541;DHT22;14206;50.202;10.948;2023-02-04T02:45:45;6.10;91.70
26541;DHT22;14206;50.202;10.948;2023-02-04T02:48:13;6.10;91.90
26541;DHT22;14206;50.202;10.948;2023-02-04T02:50:41;6.10;91.90
26541;DHT22;14206;50.202;10.948;2023-02-04T02:53:13;6.10;92.00
26541;DHT22;14206;50.202;10.948;2023-02-04T02:55:42;6.00;91.80
26541;DHT22;14206;50.202;10.948;2023-02-04T02:58:49;5.90;91.90
26541;DHT22;14206;50.202;10.948;2023-02-04T03:01:08;5.80;92.50
26541;DHT22;14206;50.202;10.948;2023-02-04T03:03:49;5.70;92.60
26541;DHT22;14206;50.202;10.948;2023-02-04T03:06:22;5.60;93.10
26541;DHT22;14206;50.202;10.948;2023-02-04T03:08:52;5.40;93.60
26541;DHT22;14206;50.202;10.948;2023-02-04T03:11:22;5.30;94.10
26541;DHT22;14206;50.202;10.948;2023-02-04T03:13:52;5.20;94.50
26541;DHT22;14206;50.202;10.948;2023-02-04T03:16:19;5.20;94.70
26541;DHT22;14206;50.202;10.948;2023-02-04T03:18:46;5.10;95.20
26541;DHT22;14206;50.202;10.948;2023-02-04T03:21:13;5.00;95.60
26541;DHT22;14206;50.202;10.948;2023-02-04T03:23:41;5.10;95.50
26541;DHT22;14206;50.202;10.948;2023-02-04T03:26:07;5.10;95.60
26541;DHT22;14206;50.202;10.948;2023-02-04T03:28:38;5.20;95.40
26541;DHT22;14206;50.202;10.948;2023-02-04T03:31:06;5.20;95.30
26541;DHT22;14206;50.202;10.948;2023-02-04T03:33:33;5.20;95.30
26541;DHT22;14206;50.202;10.948;2023-02-04T03:36:01;5.30;95.50
26541;DHT22;14206;50.202;10.948;2023-02-04T03:38:28;5.30;95.70
26541;DHT22;14206;50.202;10.948;2023-02-04T03:40:55;5.30;96.60
26541;DHT22;14206;50.202;10.948;2023-02-04T03:43:22;5.20;96.60
26541;DHT22;14206;50.202;10.948;2023-02-04T03:45:48;5.10;96.60
26541;DHT22;14206;50.202;10.948;2023-02-04T03:48:15;5.00;96.60
26541;DHT22;14206;50.202;10.948;2023-02-04T03:50:42;4.80;96.60
26541;DHT22;14206;50.202;10.948;2023-02-04T03:53:09;4.70;96.60
26541;DHT22;14206;50.202;10.948;2023-02-04T03:55:36;4.60;96.60
26541;DHT22;14206;50.202;10.948;2023-02-04T03:58:03;4.50;96.60
26541;DHT22;14206;50.202;10.948;2023-02-04T04:00:31;4.40;96.60
26541;DHT22;14206;50.202;10.948;2023-02-04T04:02:59;4.40;96.60
26541;DHT22;14206;50.202;10.948;2023-02-04T04:05:26;4.30;96.60
26541;DHT22;14206;50.202;10.948;2023-02-04T04:07:54;4.30;96.60
26541;DHT22;14206;50.202;10.948;2023-02-04T04:10:21;4.30;96.60
26541;DHT22;14206;50.202;10.948;2023-02-04T04:12:48;4.30;96.60
26541;DHT22;14206;50.202;10.948;2023-02-04T04:15:15;4.30;96.60
26541;DHT22;14206;50.202;10.948;2023-02-04T04:17:42;4.30;96.60
26541;DHT22;14206;50.202;10.948;2023-02-04T04:20:09;4.40;96.60
26541;DHT22;14206;50.202;10.948;2023-02-04T04:22:36;4.50;96.60
26541;DHT22;14206;50.202;10.948;2023-02-04T04:25:03;4.50;96.60
26541;DHT22;14206;50.202;10.948;2023-02-04T04:27:30;4.60;96.60
26541;DHT22;14206;50.202;10.948;2023-02-04T04:29:57;4.70;96.60
26541;DHT22;14206;50.202;10.948;2023-02-04T04:32:24;4.70;96.60
26541;DHT22;14206;50.202;10.948;2023-02-04T04:34:51;4.80;96.60
26541;DHT22;14206;50.202;10.948;2023-02-04T04:37:17;4.90;96.60
26541;DHT22;14206;50.202;10.948;2023-02-04T04:39:44;4.90;96.60
26541;DHT22;14206;50.202;10.948;2023-02-04T04:42:11;5.00;96.60
26541;DHT22;14206;50.202;10.948;2023-02-04T04:44:38;4.90;96.60
26541;DHT22;14206;50.202;10.948;2023-02-04T04:47:05;4.90;95.80
26541;DHT22;14206;50.202;10.948;2023-02-04T04:49:38;4.70;95.30
26541;DHT22;14206;50.202;10.948;2023-02-04T04:52:04;4.60;94.90
26541;DHT22;14206;50.202;10.948;2023-02-04T04:54:31;4.50;95.10
26541;DHT22;14206;50.202;10.948;2023-02-04T04:56:58;4.30;94.40
26541;DHT22;14206;50.202;10.948;2023-02-04T04:59:25;4.20;93.70
26541;DHT22;14206;50.202;10.948;2023-02-04T05:01:52;4.10;93.90
26541;DHT22;14206;50.202;10.948;2023-02-04T05:04:19;4.10;93.90
26541;DHT22;14206;50.202;10.948;2023-02-04T05:06:46;4.00;93.80
26541;DHT22;14206;50.202;10.948;2023-02-04T05:09:13;4.00;93.80
26541;DHT22;14206;50.202;10.948;2023-02-04T05:11:42;3.90;93.70
26541;DHT22;14206;50.202;10.948;2023-02-04T05:14:09;3.80;93.50
26541;DHT22;14206;50.202;10.948;2023-02-04T05:16:36;3.70;93.70
26541;DHT22;14206;50.202;10.948;2023-02-04T05:19:03;3.70;93.90
26541;DHT22;14206;50.202;10.948;2023-02-04T05:21:30;3.60;94.30
26541;DHT22;14206;50.202;10.948;2023-02-04T05:23:57;3.60;94.10
26541;DHT22;14206;50.202;10.948;2023-02-04T05:26:24;3.60;94.60
26541;DHT22;14206;50.202;10.948;2023-02-04T05:28:56;3.60;94.20
26541;DHT22;14206;50.202;10.948;2023-02-04T05:31:25;3.50;94.30
26541;DHT22;14206;50.202;10.948;2023-02-04T05:33:52;3.50;94.00
26541;DHT22;14206;50.202;10.948;2023-02-04T05:36:20;3.50;93.90
26541;DHT22;14206;50.202;10.948;2023-02-04T05:38:47;3.50;94.20
26541;DHT22;14206;50.202;10.948;2023-02-04T05:41:14;3.50;94.50
26541;DHT22;14206;50.202;10.948;2023-02-04T05:43:40;3.50;94.90
26541;DHT22;14206;50.202;10.948;2023-02-04T05:46:08;3.50;95.00
26541;DHT22;14206;50.202;10.948;2023-02-04T05:48:35;3.60;95.00
26541;DHT22;14206;50.202;10.948;2023-02-04T05:51:02;3.60;94.90
26541;DHT22;14206;50.202;10.948;2023-02-04T05:53:29;3.70;95.10
26541;DHT22;14206;50.202;10.948;2023-02-04T05:55:56;3.70;95.00
26541;DHT22;14206;50.202;10.948;2023-02-04T05:58:23;3.80;95.10
26541;DHT22;14206;50.202;10.948;2023-02-04T06:00:53;3.80;95.10
26541;DHT22;14206;50.202;10.948;2023-02-04T06:03:20;3.90;95.00
26541;DHT22;14206;50.202;10.948;2023-02-04T06:05:47;3.90;94.30
26541;DHT22;14206;50.202;10.948;2023-02-04T06:08:14;3.90;94.10
26541;DHT22;14206;50.202;10.948;2023-02-04T06:10:42;3.90;93.80
26541;DHT22;14206;50.202;10.948;2023-02-04T06:13:09;3.90;93.50
26541;DHT22;14206;50.202;10.948;2023-02-04T06:15:36;3.90;93.60
26541;DHT22;14206;50.202;10.948;2023-02-04T06:18:03;4.00;94.50
26541;DHT22;14206;50.202;10.948;2023-02-04T06:20:29;4.00;94.50
26541;DHT22;14206;50.202;10.948;2023-02-04T06:22:57;4.10;93.80
26541;DHT22;14206;50.202;10.948;2023-02-04T06:25:23;4.10;93.80
26541;DHT22;14206;50.202;10.948;2023-02-04T06:27:50;4.10;93.90
26541;DHT22;14206;50.202;10.948;2023-02-04T06:30:18;4.10;94.20
26541;DHT22;14206;50.202;10.948;2023-02-04T06:32:45;4.10;94.30
26541;DHT22;14206;50.202;10.948;2023-02-04T06:35:12;4.00;93.80
26541;DHT22;14206;50.202;10.948;2023-02-04T06:37:40;4.10;93.80
26541;DHT22;14206;50.202;10.948;2023-02-04T06:40:08;4.10;93.20
26541;DHT22;14206;50.202;10.948;2023-02-04T06:42:35;4.10;93.60
26541;DHT22;14206;50.202;10.948;2023-02-04T06:45:03;4.10;93.60
26541;DHT22;14206;50.202;10.948;2023-02-04T06:47:30;4.10;92.40
26541;DHT22;14206;50.202;10.948;2023-02-04T06:49:56;4.00;92.00
26541;DHT22;14206;50.202;10.948;2023-02-04T06:52:23;4.00;91.70
26541;DHT22;14206;50.202;10.948;2023-02-04T06:54:50;4.00;92.00
26541;DHT22;14206;50.202;10.948;2023-02-04T06:57:17;4.00;91.60
26541;DHT22;14206;50.202;10.948;2023-02-04T06:59:43;4.00;92.10
26541;DHT22;14206;50.202;10.948;2023-02-04T07:02:12;4.00;92.60
26541;DHT22;14206;50.202;10.948;2023-02-04T07:04:39;4.00;92.40
26541;DHT22;14206;50.202;10.948;2023-02-04T07:07:10;4.00;92.00
26541;DHT22;14206;50.202;10.948;2023-02-04T07:09:37;3.90;92.00
26541;DHT22;14206;50.202;10.948;2023-02-04T07:12:06;3.90;92.00
26541;DHT22;14206;50.202;10.948;2023-02-04T07:14:33;3.90;92.20
26541;DHT22;14206;50.202;10.948;2023-02-04T07:17:00;3.80;92.20
26541;DHT22;14206;50.202;10.948;2023-02-04T07:19:27;3.70;92.50
26541;DHT22;14206;50.202;10.948;2023-02-04T07:21:53;3.70;92.40
26541;DHT22;14206;50.202;10.948;2023-02-04T07:24:22;3.60;92.70
26541;DHT22;14206;50.202;10.948;2023-02-04T07:26:50;3.60;92.70
26541;DHT22;14206;50.202;10.948;2023-02-04T07:29:17;3.60;92.90
26541;DHT22;14206;50.202;10.948;2023-02-04T07:31:51;3.60;93.20
26541;DHT22;14206;50.202;10.948;2023-02-04T07:34:19;3.70;93.40
26541;DHT22;14206;50.202;10.948;2023-02-04T07:36:46;3.80;93.60
26541;DHT22;14206;50.202;10.948;2023-02-04T07:39:14;4.00;93.70
26541;DHT22;14206;50.202;10.948;2023-02-04T07:41:40;4.30;93.60
26541;DHT22;14206;50.202;10.948;2023-02-04T07:44:07;4.60;92.90
26541;DHT22;14206;50.202;10.948;2023-02-04T07:46:34;4.90;92.80
26541;DHT22;14206;50.202;10.948;2023-02-04T07:49:01;5.20;91.90
26541;DHT22;14206;50.202;10.948;2023-02-04T07:51:28;5.70;91.20
26541;DHT22;14206;50.202;10.948;2023-02-04T07:53:56;6.10;89.50
26541;DHT22;14206;50.202;10.948;2023-02-04T07:56:22;6.50;88.60
26541;DHT22;14206;50.202;10.948;2023-02-04T07:58:49;6.80;86.40
26541;DHT22;14206;50.202;10.948;2023-02-04T08:01:16;6.80;84.30
26541;DHT22;14206;50.202;10.948;2023-02-04T08:03:43;6.70;84.60
26541;DHT22;14206;50.202;10.948;2023-02-04T08:06:10;6.80;84.00
26541;DHT22;14206;50.202;10.948;2023-02-04T08:08:37;6.90;83.90
26541;DHT22;14206;50.202;10.948;2023-02-04T08:11:04;7.00;82.50
26541;DHT22;14206;50.202;10.948;2023-02-04T08:13:31;6.90;82.90
26541;DHT22;14206;50.202;10.948;2023-02-04T08:15:58;6.90;81.70
26541;DHT22;14206;50.202;10.948;2023-02-04T08:18:25;6.70;82.00
26541;DHT22;14206;50.202;10.948;2023-02-04T08:20:52;6.60;82.80
26541;DHT22;14206;50.202;10.948;2023-02-04T08:23:19;6.40;82.80
26541;DHT22;14206;50.202;10.948;2023-02-04T08:25:47;6.20;83.10
26541;DHT22;14206;50.202;10.948;2023-02-04T08:28:14;6.10;84.20
26541;DHT22;14206;50.202;10.948;2023-02-04T08:30:41;5.90;84.40
26541;DHT22;14206;50.202;10.948;2023-02-04T08:33:08;5.80;84.40
26541;DHT22;14206;50.202;10.948;2023-02-04T08:35:35;5.80;84.50
26541;DHT22;14206;50.202;10.948;2023-02-04T08:38:02;5.80;84.60
26541;DHT22;14206;50.202;10.948;2023-02-04T08:40:29;5.80;84.20
26541;DHT22;14206;50.202;10.948;2023-02-04T08:42:56;5.70;84.30
26541;DHT22;14206;50.202;10.948;2023-02-04T08:45:23;5.70;84.30
26541;DHT22;14206;50.202;10.948;2023-02-04T08:47:50;5.80;84.10
26541;DHT22;14206;50.202;10.948;2023-02-04T08:50:17;5.80;84.20
26541;DHT22;14206;50.202;10.948;2023-02-04T08:52:44;5.90;84.60
26541;DHT22;14206;50.202;10.948;2023-02-04T08:55:11;6.00;83.10
26541;DHT22;14206;50.202;10.948;2023-02-04T08:57:38;6.00;83.20
26541;DHT22;14206;50.202;10.948;2023-02-04T09:00:05;6.00;82.90
26541;DHT22;14206;50.202;10.948;2023-02-04T09:02:32;5.90;83.10
26541;DHT22;14206;50.202;10.948;2023-02-04T09:05:02;6.00;83.80
26541;DHT22;14206;50.202;10.948;2023-02-04T09:07:29;6.00;82.70
26541;DHT22;14206;50.202;10.948;2023-02-04T09:09:55;5.90;83.00
26541;DHT22;14206;50.202;10.948;2023-02-04T09:12:22;5.80;83.10
26541;DHT22;14206;50.202;10.948;2023-02-04T09:14:49;5.80;83.90
26541;DHT22;14206;50.202;10.948;2023-02-04T09:17:16;5.80;83.60
26541;DHT22;14206;50.202;10.948;2023-02-04T09:19:44;5.60;83.00
26541;DHT22;14206;50.202;10.948;2023-02-04T09:22:10;5.50;82.60
26541;DHT22;14206;50.202;10.948;2023-02-04T09:24:39;5.40;83.20
26541;DHT22;14206;50.202;10.948;2023-02-04T09:27:06;5.50;83.70
26541;DHT22;14206;50.202;10.948;2023-02-04T09:29:32;5.50;83.40
26541;DHT22;14206;50.202;10.948;2023-02-04T09:31:59;5.60;83.40
26541;DHT22;14206;50.202;10.948;2023-02-04T09:34:26;5.70;82.90
26541;DHT22;14206;50.202;10.948;2023-02-04T09:36:53;5.80;82.90
26541;DHT22;14206;50.202;10.948;2023-02-04T09:39:20;5.90;81.50
26541;DHT22;14206;50.202;10.948;2023-02-04T09:41:47;5.90;80.30
26541;DHT22;14206;50.202;10.948;2023-02-04T09:44:16;5.80;79.20
26541;DHT22;14206;50.202;10.948;2023-02-04T09:46:50;5.70;79.50
26541;DHT22;14206;50.202;10.948;2023-02-04T09:49:17;5.70;79.60
26541;DHT22;14206;50.202;10.948;2023-02-04T09:51:45;5.70;79.80
26541;DHT22;14206;50.202;10.948;2023-02-04T09:54:15;5.70;80.00
26541;DHT22;14206;50.202;10.948;2023-02-04T09:56:42;5.70;80.30
26541;DHT22;14206;50.202;10.948;2023-02-04T09:59:20;5.70;81.20
26541;DHT22;14206;50.202;10.948;2023-02-04T10:01:55;5.90;80.80
26541;DHT22;14206;50.202;10.948;2023-02-04T10:04:23;6.00;80.20
26541;DHT22;14206;50.202;10.948;2023-02-04T10:06:50;6.10;80.70
26541;DHT22;14206;50.202;10.948;2023-02-04T10:09:17;6.20;79.00
26541;DHT22;14206;50.202;10.948;2023-02-04T10:11:46;6.20;79.00
26541;DHT22;14206;50.202;10.948;2023-02-04T10:14:22;6.20;79.80
26541;DHT22;14206;50.202;10.948;2023-02-04T10:16:56;6.40;79.70
26541;DHT22;14206;50.202;10.948;2023-02-04T10:19:27;6.50;79.00
26541;DHT22;14206;50.202;10.948;2023-02-04T10:21:55;6.60;77.80
26541;DHT22;14206;50.202;10.948;2023-02-04T10:24:24;6.80;77.40
26541;DHT22;14206;50.202;10.948;2023-02-04T10:26:52;6.80;77.60
26541;DHT22;14206;50.202;10.948;2023-02-04T10:29:22;7.00;76.50
26541;DHT22;14206;50.202;10.948;2023-02-04T10:31:51;7.20;76.10
26541;DHT22;14206;50.202;10.948;2023-02-04T10:34:21;7.20;75.20
26541;DHT22;14206;50.202;10.948;2023-02-04T10:36:53;7.10;75.70
26541;DHT22;14206;50.202;10.948;2023-02-04T10:39:27;7.00;76.20
26541;DHT22;14206;50.202;10.948;2023-02-04T10:41:59;7.00;75.10
26541;DHT22;14206;50.202;10.948;2023-02-04T10:44:32;7.10;75.10
26541;DHT22;14206;50.202;10.948;2023-02-04T10:47:04;7.10;76.30
26541;DHT22;14206;50.202;10.948;2023-02-04T10:49:32;7.20;75.60
26541;DHT22;14206;50.202;10.948;2023-02-04T10:52:00;7.30;74.50
26541;DHT22;14206;50.202;10.948;2023-02-04T10:54:34;7.40;74.50
26541;DHT22;14206;50.202;10.948;2023-02-04T10:57:21;7.70;72.70
26541;DHT22;14206;50.202;10.948;2023-02-04T10:59:51;8.00;71.50
26541;DHT22;14206;50.202;10.948;2023-02-04T11:05:18;8.70;70.50
26541;DHT22;14206;50.202;10.948;2023-02-04T11:07:46;8.80;70.40
26541;DHT22;14206;50.202;10.948;2023-02-04T11:10:16;8.70;68.70
26541;DHT22;14206;50.202;10.948;2023-02-04T11:12:46;8.40;68.50
26541;DHT22;14206;50.202;10.948;2023-02-04T11:18:07;8.00;69.80
26541;DHT22;14206;50.202;10.948;2023-02-04T11:20:35;7.90;70.30
26541;DHT22;14206;50.202;10.948;2023-02-04T11:25:41;7.60;70.80
26541;DHT22;14206;50.202;10.948;2023-02-04T11:28:22;7.40;69.70
26541;DHT22;14206;50.202;10.948;2023-02-04T11:31:00;7.30;71.00
26541;DHT22;14206;50.202;10.948;2023-02-04T11:33:37;7.30;73.70
26541;DHT22;14206;50.202;10.948;2023-02-04T11:36:08;7.50;72.00
26541;DHT22;14206;50.202;10.948;2023-02-04T11:38:35;7.50;72.50
26541;DHT22;14206;50.202;10.948;2023-02-04T11:41:02;7.50;72.40
26541;DHT22;14206;50.202;10.948;2023-02-04T11:43:35;7.40;73.40
26541;DHT22;14206;50.202;10.948;2023-02-04T11:46:15;7.30;73.20
26541;DHT22;14206;50.202;10.948;2023-02-04T11:48:42;7.20;74.10
26541;DHT22;14206;50.202;10.948;2023-02-04T11:51:16;7.20;74.10
26541;DHT22;14206;50.202;10.948;2023-02-04T11:53:43;7.20;74.80
26541;DHT22;14206;50.202;10.948;2023-02-04T11:56:36;7.20;74.00
26541;DHT22;14206;50.202;10.948;2023-02-04T11:59:03;7.20;74.20
26541;DHT22;14206;50.202;10.948;2023-02-04T12:01:31;7.20;74.00
26541;DHT22;14206;50.202;10.948;2023-02-04T12:04:00;7.30;74.50
26541;DHT22;14206;50.202;10.948;2023-02-04T12:06:35;7.40;73.50
26541;DHT22;14206;50.202;10.948;2023-02-04T12:09:06;7.50;73.50
26541;DHT22;14206;50.202;10.948;2023-02-04T12:11:34;7.60;73.90
26541;DHT22;14206;50.202;10.948;2023-02-04T12:14:09;7.80;73.30
26541;DHT22;14206;50.202;10.948;2023-02-04T12:16:49;7.80;72.20
26541;DHT22;14206;50.202;10.948;2023-02-04T12:19:17;7.90;70.30
26541;DHT22;14206;50.202;10.948;2023-02-04T12:21:44;7.80;70.20
26541;DHT22;14206;50.202;10.948;2023-02-04T12:24:11;7.90;71.00
26541;DHT22;14206;50.202;10.948;2023-02-04T12:26:37;8.10;70.10
26541;DHT22;14206;50.202;10.948;2023-02-04T12:29:04;8.20;71.00
26541;DHT22;14206;50.202;10.948;2023-02-04T12:31:32;8.20;69.10
26541;DHT22;14206;50.202;10.948;2023-02-04T12:33:59;8.30;69.40
26541;DHT22;14206;50.202;10.948;2023-02-04T12:36:27;8.40;68.90
26541;DHT22;14206;50.202;10.948;2023-02-04T12:38:56;8.40;69.90
26541;DHT22;14206;50.202;10.948;2023-02-04T12:41:25;8.30;67.60
26541;DHT22;14206;50.202;10.948;2023-02-04T12:43:52;8.20;68.60
26541;DHT22;14206;50.202;10.948;2023-02-04T12:46:21;8.10;68.00
26541;DHT22;14206;50.202;10.948;2023-02-04T12:48:49;8.00;69.10
26541;DHT22;14206;50.202;10.948;2023-02-04T12:51:16;7.90;69.30
26541;DHT22;14206;50.202;10.948;2023-02-04T12:53:43;7.90;70.80
26541;DHT22;14206;50.202;10.948;2023-02-04T12:56:10;7.90;70.60
26541;DHT22;14206;50.202;10.948;2023-02-04T12:58:37;7.90;71.00
26541;DHT22;14206;50.202;10.948;2023-02-04T13:01:04;7.90;70.90
26541;DHT22;14206;50.202;10.948;2023-02-04T13:03:31;7.80;70.20
26541;DHT22;14206;50.202;10.948;2023-02-04T13:05:58;7.70;70.40
26541;DHT22;14206;50.202;10.948;2023-02-04T13:08:25;7.70;70.80
26541;DHT22;14206;50.202;10.948;2023-02-04T13:10:58;7.80;69.70
26541;DHT22;14206;50.202;10.948;2023-02-04T13:13:25;7.80;69.30
26541;DHT22;14206;50.202;10.948;2023-02-04T13:15:52;7.80;70.10
26541;DHT22;14206;50.202;10.948;2023-02-04T13:18:19;7.90;70.10
26541;DHT22;14206;50.202;10.948;2023-02-04T13:20:46;7.80;69.10
26541;DHT22;14206;50.202;10.948;2023-02-04T13:23:13;7.80;69.40
26541;DHT22;14206;50.202;10.948;2023-02-04T13:25:40;7.80;70.50
26541;DHT22;14206;50.202;10.948;2023-02-04T13:28:08;7.90;69.90
26541;DHT22;14206;50.202;10.948;2023-02-04T13:30:35;7.90;70.40
26541;DHT22;14206;50.202;10.948;2023-02-04T13:33:02;8.00;69.80
26541;DHT22;14206;50.202;10.948;2023-02-04T13:35:29;8.10;69.10
26541;DHT22;14206;50.202;10.948;2023-02-04T13:37:56;8.10;68.80
26541;DHT22;14206;50.202;10.948;2023-02-04T13:40:23;8.20;68.70
26541;DHT22;14206;50.202;10.948;2023-02-04T13:42:50;8.20;67.60
26541;DHT22;14206;50.202;10.948;2023-02-04T13:45:23;8.30;68.50
26541;DHT22;14206;50.202;10.948;2023-02-04T13:47:50;8.30;68.70
26541;DHT22;14206;50.202;10.948;2023-02-04T13:50:18;8.20;69.00
26541;DHT22;14206;50.202;10.948;2023-02-04T13:52:44;8.20;68.90
26541;DHT22;14206;50.202;10.948;2023-02-04T13:55:11;8.30;68.60
26541;DHT22;14206;50.202;10.948;2023-02-04T13:57:38;8.30;69.10
26541;DHT22;14206;50.202;10.948;2023-02-04T14:00:06;8.30;68.90
26541;DHT22;14206;50.202;10.948;2023-02-04T14:02:39;8.30;68.80
26541;DHT22;14206;50.202;10.948;2023-02-04T14:05:06;8.30;68.50
26541;DHT22;14206;50.202;10.948;2023-02-04T14:07:33;8.30;67.60
26541;DHT22;14206;50.202;10.948;2023-02-04T14:10:00;8.20;69.00
26541;DHT22;14206;50.202;10.948;2023-02-04T14:12:27;8.20;69.40
26541;DHT22;14206;50.202;10.948;2023-02-04T14:14:54;8.10;68.40
26541;DHT22;14206;50.202;10.948;2023-02-04T14:17:21;8.00;68.40
26541;DHT22;14206;50.202;10.948;2023-02-04T14:19:47;8.00;69.60
26541;DHT22;14206;50.202;10.948;2023-02-04T14:22:14;7.90;69.30
26541;DHT22;14206;50.202;10.948;2023-02-04T14:24:41;7.90;70.20
26541;DHT22;14206;50.202;10.948;2023-02-04T14:27:09;7.80;70.70
26541;DHT22;14206;50.202;10.948;2023-02-04T14:29:36;7.70;70.90
26541;DHT22;14206;50.202;10.948;2023-02-04T14:32:03;7.70;70.80
26541;DHT22;14206;50.202;10.948;2023-02-04T14:34:30;7.60;70.80
26541;DHT22;14206;50.202;10.948;2023-02-04T14:36:58;7.70;71.60
26541;DHT22;14206;50.202;10.948;2023-02-04T14:39:29;7.70;71.00
26541;DHT22;14206;50.202;10.948;2023-02-04T14:41:55;7.70;72.00
26541;DHT22;14206;50.202;10.948;2023-02-04T14:44:22;7.70;70.60
26541;DHT22;14206;50.202;10.948;2023-02-04T14:46:49;7.60;70.40
26541;DHT22;14206;50.202;10.948;2023-02-04T14:49:16;7.60;71.00
26541;DHT22;14206;50.202;10.948;2023-02-04T14:51:43;7.60;71.80
26541;DHT22;14206;50.202;10.948;2023-02-04T14:54:10;7.60;71.10
26541;DHT22;14206;50.202;10.948;2023-02-04T14:56:37;7.60;71.20
26541;DHT22;14206;50.202;10.948;2023-02-04T14:59:03;7.50;71.70
26541;DHT22;14206;50.202;10.948;2023-02-04T15:01:30;7.50;71.90
26541;DHT22;14206;50.202;10.948;2023-02-04T15:03:57;7.40;72.70
26541;DHT22;14206;50.202;10.948;2023-02-04T15:06:26;7.30;73.50
26541;DHT22;14206;50.202;10.948;2023-02-04T15:08:53;7.20;73.60
26541;DHT22;14206;50.202;10.948;2023-02-04T15:11:20;7.20;74.00
26541;DHT22;14206;50.202;10.948;2023-02-04T15:13:47;7.20;74.10
26541;DHT22;14206;50.202;10.948;2023-02-04T15:16:14;7.10;74.20
26541;DHT22;14206;50.202;10.948;2023-02-04T15:18:41;7.10;73.80
26541;DHT22;14206;50.202;10.948;2023-02-04T15:21:08;7.00;73.70
26541;DHT22;14206;50.202;10.948;2023-02-04T15:23:35;7.00;74.10
26541;DHT22;14206;50.202;10.948;2023-02-04T15:26:02;7.00;73.30
26541;DHT22;14206;50.202;10.948;2023-02-04T15:28:29;6.80;74.90
26541;DHT22;14206;50.202;10.948;2023-02-04T15:30:57;6.70;74.90
26541;DHT22;14206;50.202;10.948;2023-02-04T15:33:24;6.60;74.90
26541;DHT22;14206;50.202;10.948;2023-02-04T15:35:51;6.50;75.60
26541;DHT22;14206;50.202;10.948;2023-02-04T15:38:18;6.30;76.40
26541;DHT22;14206;50.202;10.948;2023-02-04T15:40:45;6.20;76.50
26541;DHT22;14206;50.202;10.948;2023-02-04T15:43:12;6.10;77.10
26541;DHT22;14206;50.202;10.948;2023-02-04T15:45:39;6.00;78.20